Detall de PIREP

Printer-friendly versionPDF version

[2016/11/27 07:46:00]
Flight IATA:CT3255
Pilot Number:012
Company ICAO:CAT
Aircraft Type:B463/A
PAX:100
Aircraft Registration:PAX
Departing Airport: LDZA
Destination Airport: LEPA
Alternate Airport:LEIB
Online: VATSIM
Route:KOTOR UT742 NAKIT/N0412F280 UL615 ROTAR UM167 CHI UM859 EKPAL UZ388 IXITO/N0408F290 UN850 BALEN UT250 RIXOT
Flight Level:F290
No Slew and time accel
No pause
Crash detect
Detect pilot in Cockpit between each 30 and 45 minutes
07:46 Zero fuel Weight: 75813 Lbs, Fuel Weight: 20606 Lbs
07:46 VATSIM:LDZA 270730Z 06003KT 010V100 1500 -RA BR OVC002 07/06 Q1014 NOSIG
07:46 VATSIM:LEPA 270730Z 10003KT 9999 FEW024 14/13 Q1009 NOSIG
07:46 Parking Brakes off
07:49 Take-off
07:49 Take off Weight: 96090 Lbs
07:49 Wind: 055º @ 003 Knots Heading: 045º
07:49 POS N45º 44´ 37´´ E016º 04´ 09´´
07:49 Gear Up: 149 Knots
07:49 Flaps:2 at 149 Knots
07:50 Flaps:1 at 145 Knots
07:51 Flaps:0 at 137 Knots
08:04 Wind:052º@012 Knots Heading: 253º Ground Speed: 404 Knots Altitude 27887 ft
08:19 Wind:300º@008 Knots Heading: 248º Ground Speed: 411 Knots Altitude 27995 ft
08:34 Wind:294º@013 Knots Heading: 266º Ground Speed: 406 Knots Altitude 28044 ft
08:49 Wind:165º@005 Knots Heading: 184º Ground Speed: 415 Knots Altitude 28021 ft
08:53 TOC
08:53 Fuel Weight: 13073 Lb
09:04 Wind:147º@022 Knots Heading: 225º Ground Speed: 414 Knots Altitude 29025 ft
09:19 Wind:144º@019 Knots Heading: 237º Ground Speed: 423 Knots Altitude 28999 ft
09:26 TOD
09:26 Fuel Weight: 9963 Lb
09:34 Wind:142º@013 Knots Heading: 231º Ground Speed: 338 Knots Altitude 13353 ft
09:45 Flaps:1 at 208 Knots
09:45 Flaps:2 at 190 Knots
09:45 Gear Down: 188 Knots
09:45 Flaps:3 at 163 Knots
09:46 Flaps:4 at 143 Knots
09:49 Wind:108º@005 Knots Heading: 232º Ground Speed: 149 Knots Altitude 1387 ft
09:51 TouchDown:Rate -19 ft/min Speed: 118 Knots
09:51 VATSIM:LEPA 270930Z 07005KT 9999 FEW025 17/14 Q1010 NOSIG
09:51 Land
09:51 Wind:079º@004 Knots
09:51 Heading: 264º
09:51 Flight Duration: 02:02
09:51 Landing Weight: 84579 Lbs
09:51 POS N39º 32´ 50´´ E002º 44´ 43´´
09:53 Parking brakes on
09:53 Block to Block Duration: 02:07
09:53 Final Fuel: 8646 Lbls
09:53 Spent Fuel: 11959 Lbls
09:53 Flight Length: 759 NM
09:53 TOD Land Length: 114 NM

Exportar CSV

Powered by Drupal - Modified by Danger4k